createdAt,value
2023-02-04T00:00:00.556Z,4.57
2023-02-04T00:05:22.306Z,3.08
2023-02-04T00:10:44.034Z,4.13
2023-02-04T00:16:06.320Z,2.83
2023-02-04T00:21:28.097Z,3.63
2023-02-04T00:26:49.842Z,3.40
2023-02-04T00:32:11.623Z,1.80
2023-02-04T00:37:33.573Z,1.63
2023-02-04T00:42:55.473Z,1.40
2023-02-04T00:48:17.181Z,2.85
2023-02-04T00:53:38.911Z,1.58
2023-02-04T00:59:00.710Z,2.35
2023-02-04T01:04:23.392Z,2.22
2023-02-04T01:09:45.136Z,3.17
2023-02-04T01:15:07.274Z,4.30
2023-02-04T01:20:29.490Z,4.38
2023-02-04T01:25:51.557Z,3.75
2023-02-04T01:31:13.683Z,4.15
2023-02-04T01:36:35.497Z,3.73
2023-02-04T01:41:57.926Z,3.25
2023-02-04T01:47:20.649Z,3.55
2023-02-04T01:52:44.145Z,4.20
2023-02-04T01:58:05.938Z,1.90
2023-02-04T02:03:27.649Z,3.33
2023-02-04T02:08:49.412Z,2.97
2023-02-04T02:14:12.392Z,1.33
2023-02-04T02:19:37.933Z,3.92
2023-02-04T02:24:59.629Z,3.10
2023-02-04T02:30:21.695Z,4.90
2023-02-04T02:35:48.232Z,8.52
2023-02-04T02:41:10.984Z,5.70
2023-02-04T02:46:33.091Z,5.80
2023-02-04T02:51:54.865Z,8.52
2023-02-04T02:57:19.704Z,5.93
2023-02-04T03:02:41.891Z,6.43
2023-02-04T03:08:04.692Z,9.77
2023-02-04T03:13:26.441Z,7.88
2023-02-04T03:18:49.442Z,4.13
2023-02-04T03:24:11.585Z,6.90
2023-02-04T03:29:33.692Z,6.80
2023-02-04T03:34:55.383Z,6.18
2023-02-04T03:40:17.182Z,7.05
2023-02-04T03:45:45.245Z,7.03
2023-02-04T03:51:07.507Z,7.35
2023-02-04T03:56:29.251Z,4.97
2023-02-04T04:01:52.547Z,6.55
2023-02-04T04:07:14.328Z,5.40
2023-02-04T04:12:36.175Z,6.10
2023-02-04T04:17:57.943Z,6.95
2023-02-04T04:23:19.678Z,10.40
2023-02-04T04:28:41.370Z,6.85
2023-02-04T04:34:03.171Z,7.47
2023-02-04T04:39:24.927Z,7.38
2023-02-04T04:44:46.624Z,5.38
2023-02-04T04:50:08.762Z,9.00
2023-02-04T04:55:30.695Z,4.10
2023-02-04T05:00:52.414Z,5.38
2023-02-04T05:06:14.211Z,4.63
2023-02-04T05:11:35.919Z,4.60
2023-02-04T05:16:57.622Z,6.47
2023-02-04T05:22:19.321Z,5.28
2023-02-04T05:27:41.048Z,4.63
2023-02-04T05:33:02.778Z,6.68
2023-02-04T05:38:24.464Z,8.35
2023-02-04T05:43:46.185Z,9.40
2023-02-04T05:49:08.243Z,7.32
2023-02-04T05:54:29.985Z,9.93
2023-02-04T05:59:51.676Z,10.02
2023-02-04T06:05:13.485Z,10.65
2023-02-04T06:10:35.170Z,8.20
2023-02-04T06:15:56.905Z,13.27
2023-02-04T06:21:18.935Z,10.93
2023-02-04T06:26:40.704Z,12.43
2023-02-04T06:32:02.495Z,10.45
2023-02-04T06:37:24.513Z,15.88
2023-02-04T06:42:46.254Z,10.27
2023-02-04T06:48:07.972Z,14.50
2023-02-04T06:53:29.727Z,11.30
2023-02-04T06:58:51.442Z,16.00
2023-02-04T07:04:13.211Z,17.30
2023-02-04T07:09:34.946Z,12.40
2023-02-04T07:14:56.644Z,16.83
2023-02-04T07:20:18.533Z,12.32
2023-02-04T07:25:40.261Z,12.85
2023-02-04T07:31:02.137Z,13.63
2023-02-04T07:36:24.081Z,17.83
2023-02-04T07:41:45.895Z,11.63
2023-02-04T07:47:07.599Z,17.30
2023-02-04T07:52:29.289Z,19.00
2023-02-04T07:57:51.003Z,17.60
2023-02-04T08:03:12.713Z,20.27
2023-02-04T08:08:34.407Z,20.27
2023-02-04T08:13:56.112Z,13.38
2023-02-04T08:19:20.654Z,16.73
2023-02-04T08:24:42.469Z,17.00
2023-02-04T08:30:05.428Z,18.90
2023-02-04T08:35:27.220Z,13.23
2023-02-04T08:40:48.915Z,13.05
2023-02-04T08:46:10.767Z,20.35
2023-02-04T08:51:32.879Z,20.10
2023-02-04T08:56:54.594Z,14.32
2023-02-04T09:02:16.327Z,17.40
2023-02-04T09:07:38.105Z,19.13
2023-02-04T09:12:59.906Z,19.27
2023-02-04T09:18:22.582Z,12.47
2023-02-04T09:23:46.532Z,18.50
2023-02-04T09:29:08.255Z,13.50
2023-02-04T09:34:29.953Z,20.23
2023-02-04T09:39:51.678Z,14.50
2023-02-04T09:45:24.303Z,18.73
2023-02-04T09:50:46.049Z,14.60
2023-02-04T09:56:10.965Z,19.65
2023-02-04T10:01:33.024Z,16.58
2023-02-04T10:06:58.530Z,19.33
2023-02-04T10:12:21.072Z,17.63
2023-02-04T10:17:43.275Z,17.08
2023-02-04T10:23:12.457Z,19.30
2023-02-04T10:28:35.431Z,18.40
2023-02-04T10:34:05.343Z,20.83
2023-02-04T10:39:29.104Z,13.25
2023-02-04T10:44:51.090Z,12.55
2023-02-04T10:50:21.262Z,14.32
2023-02-04T10:55:47.444Z,18.30
2023-02-04T11:01:13.930Z,15.18
2023-02-04T11:06:35.665Z,18.10
2023-02-04T11:11:58.177Z,14.07
2023-02-04T11:17:21.404Z,11.57
2023-02-04T11:22:46.910Z,15.23
2023-02-04T11:28:40.738Z,15.35
2023-02-04T11:34:21.550Z,16.85
2023-02-04T11:39:46.965Z,22.17
2023-02-04T11:45:15.747Z,23.75
2023-02-04T11:50:41.576Z,19.58
2023-02-04T11:56:03.483Z,17.35
2023-02-04T12:01:33.712Z,21.48
2023-02-04T12:07:01.048Z,17.77
2023-02-04T12:12:29.215Z,19.35
2023-02-04T12:18:02.667Z,13.98
2023-02-04T12:23:25.679Z,16.35
2023-02-04T12:28:47.374Z,16.83
2023-02-04T12:34:09.081Z,16.48
2023-02-04T12:39:32.001Z,21.15
2023-02-04T12:44:53.702Z,15.90
2023-02-04T12:50:22.558Z,15.68
2023-02-04T12:55:44.311Z,27.90
2023-02-04T13:01:06.085Z,17.77
2023-02-04T13:06:27.822Z,24.83
2023-02-04T13:11:49.530Z,16.42
2023-02-04T13:17:11.325Z,19.98
2023-02-04T13:22:33.192Z,16.80
2023-02-04T13:27:55.007Z,15.63
2023-02-04T13:33:16.730Z,16.40
2023-02-04T13:38:38.435Z,20.63
2023-02-04T13:44:00.157Z,18.10
2023-02-04T13:49:21.914Z,17.55
2023-02-04T13:54:44.285Z,14.82
2023-02-04T14:00:07.451Z,15.87
2023-02-04T14:05:29.193Z,19.15
2023-02-04T14:10:50.928Z,18.73
2023-02-04T14:16:12.695Z,12.30
2023-02-04T14:21:34.437Z,20.30
2023-02-04T14:26:56.163Z,18.95
2023-02-04T14:32:18.018Z,18.60
2023-02-04T14:37:39.752Z,23.50
2023-02-04T14:43:01.498Z,17.15
2023-02-04T14:48:23.260Z,18.95
2023-02-04T14:53:48.305Z,12.52
2023-02-04T14:59:10.996Z,13.68
2023-02-04T15:04:33.192Z,12.95
2023-02-04T15:09:54.962Z,17.50
2023-02-04T15:15:16.868Z,10.77
2023-02-04T15:20:38.566Z,17.90
2023-02-04T15:26:00.274Z,16.02
2023-02-04T15:31:23.398Z,11.60
2023-02-04T15:36:45.145Z,9.43
2023-02-04T15:42:06.951Z,12.23
2023-02-04T15:47:28.796Z,15.80
2023-02-04T15:52:50.579Z,9.05
2023-02-04T15:58:12.808Z,14.90
2023-02-04T16:03:34.508Z,16.33
2023-02-04T16:08:56.239Z,16.27
2023-02-04T16:14:17.934Z,13.48
2023-02-04T16:19:39.678Z,12.32
2023-02-04T16:25:01.418Z,12.00
2023-02-04T16:30:23.135Z,14.88
2023-02-04T16:36:04.552Z,12.70
2023-02-04T16:41:26.250Z,17.65
2023-02-04T16:46:49.492Z,10.50
2023-02-04T16:52:11.279Z,21.13
2023-02-04T16:57:33.289Z,16.60
2023-02-04T17:02:55.007Z,14.98
2023-02-04T17:08:17.406Z,15.70
2023-02-04T17:13:39.321Z,20.58
2023-02-04T17:19:01.694Z,27.73
2023-02-04T17:24:24.495Z,19.55
2023-02-04T17:29:46.194Z,26.92
2023-02-04T17:35:08.070Z,21.88
2023-02-04T17:40:30.252Z,20.33
2023-02-04T17:45:52.053Z,20.73
2023-02-04T17:51:13.929Z,13.43
2023-02-04T17:56:35.635Z,20.38
2023-02-04T18:01:57.555Z,24.17
2023-02-04T18:07:19.548Z,20.50
2023-02-04T18:12:41.315Z,20.03
2023-02-04T18:18:18.268Z,13.93
2023-02-04T18:23:40.202Z,20.87
2023-02-04T18:29:18.222Z,16.30
2023-02-04T18:34:43.780Z,14.03
2023-02-04T18:40:08.578Z,18.03
2023-02-04T18:45:32.402Z,30.97
2023-02-04T18:50:54.874Z,26.10
2023-02-04T18:56:18.157Z,21.93
2023-02-04T19:01:39.929Z,18.50
2023-02-04T19:07:01.736Z,22.73
2023-02-04T19:12:25.103Z,28.77
2023-02-04T19:17:46.796Z,30.27
2023-02-04T19:23:15.707Z,26.33
2023-02-04T19:28:37.853Z,20.60
2023-02-04T19:34:12.598Z,18.00
2023-02-04T19:39:40.228Z,18.40
2023-02-04T19:45:23.483Z,14.47
2023-02-04T19:50:45.430Z,17.23
2023-02-04T19:56:39.463Z,13.80
2023-02-04T20:02:07.025Z,16.03
2023-02-04T20:07:32.207Z,22.37
2023-02-04T20:13:12.286Z,21.00
2023-02-04T20:18:33.993Z,14.93
2023-02-04T20:23:55.704Z,17.77
2023-02-04T20:29:22.604Z,14.90
2023-02-04T20:34:44.358Z,20.67
2023-02-04T20:40:35.022Z,19.73
2023-02-04T20:46:00.132Z,15.07
2023-02-04T20:51:24.003Z,20.77
2023-02-04T20:56:45.850Z,17.47
2023-02-04T21:02:17.384Z,20.63
2023-02-04T21:07:39.075Z,15.77
2023-02-04T21:13:01.508Z,19.87
2023-02-04T21:18:23.355Z,23.33
2023-02-04T21:23:45.059Z,23.50
2023-02-04T21:29:06.782Z,20.73
2023-02-04T21:34:28.474Z,16.93
2023-02-04T21:39:50.177Z,24.43
2023-02-04T21:45:11.893Z,25.23
2023-02-04T21:50:34.336Z,21.37
2023-02-04T21:55:57.876Z,18.13
2023-02-04T22:01:20.832Z,17.97
2023-02-04T22:06:42.551Z,24.33
2023-02-04T22:12:04.466Z,19.40
2023-02-04T22:17:26.348Z,20.33
2023-02-04T22:22:48.614Z,20.13
2023-02-04T22:28:10.348Z,21.00
2023-02-04T22:33:32.127Z,25.27
2023-02-04T22:38:53.845Z,29.77
2023-02-04T22:44:15.563Z,20.43
2023-02-04T22:49:37.404Z,23.50
2023-02-04T22:54:59.111Z,21.97
2023-02-04T23:00:20.975Z,29.60
2023-02-04T23:05:45.097Z,23.03
2023-02-04T23:11:06.798Z,29.60
2023-02-04T23:16:28.602Z,32.33
2023-02-04T23:21:50.311Z,26.23
2023-02-04T23:27:12.649Z,29.30
2023-02-04T23:32:34.469Z,22.50
2023-02-04T23:37:56.183Z,27.23
2023-02-04T23:43:17.967Z,19.03
2023-02-04T23:48:39.692Z,19.27
2023-02-04T23:54:01.470Z,20.97
2023-02-04T23:59:23.774Z,22.63
